sensor_id;sensor_type;location;lat;lon;timestamp;P1;durP1;ratioP1;P2;durP2;ratioP2
48554;SDS011;34336;48.270;16.716;2023-12-04T00:02:01;26.13;;;15.13;;
48554;SDS011;34336;48.270;16.716;2023-12-04T00:04:28;26.85;;;15.63;;
48554;SDS011;34336;48.270;16.716;2023-12-04T00:06:55;27.58;;;14.65;;
48554;SDS011;34336;48.270;16.716;2023-12-04T00:09:22;25.40;;;15.18;;
48554;SDS011;34336;48.270;16.716;2023-12-04T00:11:51;26.38;;;15.23;;
48554;SDS011;34336;48.270;16.716;2023-12-04T00:14:19;31.05;;;17.40;;
48554;SDS011;34336;48.270;16.716;2023-12-04T00:16:45;30.48;;;17.05;;
48554;SDS011;34336;48.270;16.716;2023-12-04T00:19:12;28.73;;;16.65;;
48554;SDS011;34336;48.270;16.716;2023-12-04T00:21:39;29.55;;;15.90;;
48554;SDS011;34336;48.270;16.716;2023-12-04T00:24:06;24.63;;;14.65;;
48554;SDS011;34336;48.270;16.716;2023-12-04T00:26:33;30.42;;;16.70;;
48554;SDS011;34336;48.270;16.716;2023-12-04T00:29:00;29.27;;;15.73;;
48554;SDS011;34336;48.270;16.716;2023-12-04T00:31:27;27.42;;;16.13;;
48554;SDS011;34336;48.270;16.716;2023-12-04T00:33:54;30.80;;;18.15;;
48554;SDS011;34336;48.270;16.716;2023-12-04T00:36:22;29.73;;;15.65;;
48554;SDS011;34336;48.270;16.716;2023-12-04T00:38:48;28.30;;;15.63;;
48554;SDS011;34336;48.270;16.716;2023-12-04T00:41:15;28.55;;;15.73;;
48554;SDS011;34336;48.270;16.716;2023-12-04T00:43:42;25.58;;;14.55;;
48554;SDS011;34336;48.270;16.716;2023-12-04T00:46:09;23.10;;;14.00;;
48554;SDS011;34336;48.270;16.716;2023-12-04T00:48:35;27.75;;;15.35;;
48554;SDS011;34336;48.270;16.716;2023-12-04T00:51:02;25.98;;;13.38;;
48554;SDS011;34336;48.270;16.716;2023-12-04T00:53:29;26.38;;;14.15;;
48554;SDS011;34336;48.270;16.716;2023-12-04T00:55:57;25.70;;;13.77;;
48554;SDS011;34336;48.270;16.716;2023-12-04T00:58:23;24.60;;;13.93;;
48554;SDS011;34336;48.270;16.716;2023-12-04T01:00:50;27.35;;;14.07;;
48554;SDS011;34336;48.270;16.716;2023-12-04T01:03:18;21.30;;;13.10;;
48554;SDS011;34336;48.270;16.716;2023-12-04T01:05:46;22.42;;;12.82;;
48554;SDS011;34336;48.270;16.716;2023-12-04T01:08:12;24.52;;;13.90;;
48554;SDS011;34336;48.270;16.716;2023-12-04T01:10:39;24.95;;;14.50;;
48554;SDS011;34336;48.270;16.716;2023-12-04T01:13:06;25.65;;;14.70;;
48554;SDS011;34336;48.270;16.716;2023-12-04T01:15:33;27.27;;;13.82;;
48554;SDS011;34336;48.270;16.716;2023-12-04T01:18:00;23.63;;;13.13;;
48554;SDS011;34336;48.270;16.716;2023-12-04T01:20:27;25.10;;;14.18;;
48554;SDS011;34336;48.270;16.716;2023-12-04T01:22:54;26.98;;;15.35;;
48554;SDS011;34336;48.270;16.716;2023-12-04T01:25:21;23.23;;;12.57;;
48554;SDS011;34336;48.270;16.716;2023-12-04T01:27:48;21.88;;;12.10;;
48554;SDS011;34336;48.270;16.716;2023-12-04T01:30:15;20.30;;;11.57;;
48554;SDS011;34336;48.270;16.716;2023-12-04T01:32:42;18.90;;;11.43;;
48554;SDS011;34336;48.270;16.716;2023-12-04T01:35:08;22.88;;;12.07;;
48554;SDS011;34336;48.270;16.716;2023-12-04T01:37:36;20.60;;;11.75;;
48554;SDS011;34336;48.270;16.716;2023-12-04T01:40:03;20.42;;;12.20;;
48554;SDS011;34336;48.270;16.716;2023-12-04T01:42:33;19.52;;;11.48;;
48554;SDS011;34336;48.270;16.716;2023-12-04T01:45:00;21.63;;;11.30;;
48554;SDS011;34336;48.270;16.716;2023-12-04T01:47:27;18.92;;;11.45;;
48554;SDS011;34336;48.270;16.716;2023-12-04T01:49:55;19.92;;;10.98;;
48554;SDS011;34336;48.270;16.716;2023-12-04T01:52:22;22.25;;;12.02;;
48554;SDS011;34336;48.270;16.716;2023-12-04T01:54:50;17.17;;;9.77;;
48554;SDS011;34336;48.270;16.716;2023-12-04T01:57:18;19.25;;;11.15;;
48554;SDS011;34336;48.270;16.716;2023-12-04T01:59:45;23.55;;;11.57;;
48554;SDS011;34336;48.270;16.716;2023-12-04T02:02:13;23.65;;;11.77;;
48554;SDS011;34336;48.270;16.716;2023-12-04T02:04:40;21.55;;;11.18;;
48554;SDS011;34336;48.270;16.716;2023-12-04T02:07:07;23.48;;;12.00;;
48554;SDS011;34336;48.270;16.716;2023-12-04T02:09:36;19.60;;;11.18;;
48554;SDS011;34336;48.270;16.716;2023-12-04T02:12:04;22.05;;;11.43;;
48554;SDS011;34336;48.270;16.716;2023-12-04T02:14:31;20.00;;;11.57;;
48554;SDS011;34336;48.270;16.716;2023-12-04T02:16:58;21.73;;;11.05;;
48554;SDS011;34336;48.270;16.716;2023-12-04T02:19:28;20.20;;;10.30;;
48554;SDS011;34336;48.270;16.716;2023-12-04T02:21:55;18.48;;;10.07;;
48554;SDS011;34336;48.270;16.716;2023-12-04T02:24:22;18.08;;;10.00;;
48554;SDS011;34336;48.270;16.716;2023-12-04T02:26:54;16.40;;;10.00;;
48554;SDS011;34336;48.270;16.716;2023-12-04T02:29:32;17.20;;;9.48;;
48554;SDS011;34336;48.270;16.716;2023-12-04T02:32:04;18.10;;;10.18;;
48554;SDS011;34336;48.270;16.716;2023-12-04T02:34:35;19.50;;;10.00;;
48554;SDS011;34336;48.270;16.716;2023-12-04T02:37:03;20.90;;;11.82;;
48554;SDS011;34336;48.270;16.716;2023-12-04T02:39:32;20.88;;;12.18;;
48554;SDS011;34336;48.270;16.716;2023-12-04T02:41:58;19.33;;;10.70;;
48554;SDS011;34336;48.270;16.716;2023-12-04T02:44:25;20.48;;;11.38;;
48554;SDS011;34336;48.270;16.716;2023-12-04T02:46:53;21.88;;;12.07;;
48554;SDS011;34336;48.270;16.716;2023-12-04T02:49:19;23.42;;;12.15;;
48554;SDS011;34336;48.270;16.716;2023-12-04T02:51:46;19.98;;;10.60;;
48554;SDS011;34336;48.270;16.716;2023-12-04T02:54:13;17.63;;;10.40;;
48554;SDS011;34336;48.270;16.716;2023-12-04T02:56:40;21.48;;;11.68;;
48554;SDS011;34336;48.270;16.716;2023-12-04T02:59:07;19.35;;;10.57;;
48554;SDS011;34336;48.270;16.716;2023-12-04T03:01:33;18.65;;;10.30;;
48554;SDS011;34336;48.270;16.716;2023-12-04T03:04:00;18.08;;;10.32;;
48554;SDS011;34336;48.270;16.716;2023-12-04T03:06:27;16.45;;;9.85;;
48554;SDS011;34336;48.270;16.716;2023-12-04T03:08:54;19.70;;;11.13;;
48554;SDS011;34336;48.270;16.716;2023-12-04T03:11:21;19.88;;;10.75;;
48554;SDS011;34336;48.270;16.716;2023-12-04T03:13:48;19.85;;;10.82;;
48554;SDS011;34336;48.270;16.716;2023-12-04T03:16:15;16.88;;;9.35;;
48554;SDS011;34336;48.270;16.716;2023-12-04T03:18:45;15.23;;;9.88;;
48554;SDS011;34336;48.270;16.716;2023-12-04T03:21:12;16.83;;;9.90;;
48554;SDS011;34336;48.270;16.716;2023-12-04T03:23:39;20.83;;;10.77;;
48554;SDS011;34336;48.270;16.716;2023-12-04T03:26:06;23.73;;;10.80;;
48554;SDS011;34336;48.270;16.716;2023-12-04T03:28:33;21.85;;;11.55;;
48554;SDS011;34336;48.270;16.716;2023-12-04T03:31:00;20.40;;;10.75;;
48554;SDS011;34336;48.270;16.716;2023-12-04T03:33:28;18.08;;;9.60;;
48554;SDS011;34336;48.270;16.716;2023-12-04T03:35:54;17.00;;;9.85;;
48554;SDS011;34336;48.270;16.716;2023-12-04T03:38:21;17.00;;;9.93;;
48554;SDS011;34336;48.270;16.716;2023-12-04T03:40:48;21.10;;;10.55;;
48554;SDS011;34336;48.270;16.716;2023-12-04T03:43:15;20.90;;;11.20;;
48554;SDS011;34336;48.270;16.716;2023-12-04T03:45:41;17.73;;;10.07;;
48554;SDS011;34336;48.270;16.716;2023-12-04T03:48:08;18.00;;;11.07;;
48554;SDS011;34336;48.270;16.716;2023-12-04T03:50:35;17.55;;;10.30;;
48554;SDS011;34336;48.270;16.716;2023-12-04T03:53:02;18.45;;;9.85;;
48554;SDS011;34336;48.270;16.716;2023-12-04T03:55:28;19.42;;;9.35;;
48554;SDS011;34336;48.270;16.716;2023-12-04T03:57:56;16.92;;;9.00;;
48554;SDS011;34336;48.270;16.716;2023-12-04T04:00:23;17.02;;;8.93;;
48554;SDS011;34336;48.270;16.716;2023-12-04T04:02:50;17.90;;;9.30;;
48554;SDS011;34336;48.270;16.716;2023-12-04T04:05:17;17.08;;;9.20;;
48554;SDS011;34336;48.270;16.716;2023-12-04T04:07:44;17.42;;;8.63;;
48554;SDS011;34336;48.270;16.716;2023-12-04T04:10:11;17.60;;;9.18;;
48554;SDS011;34336;48.270;16.716;2023-12-04T04:12:38;17.25;;;9.13;;
48554;SDS011;34336;48.270;16.716;2023-12-04T04:15:05;19.23;;;10.02;;
48554;SDS011;34336;48.270;16.716;2023-12-04T04:17:33;19.08;;;11.00;;
48554;SDS011;34336;48.270;16.716;2023-12-04T04:20:00;17.33;;;9.30;;
48554;SDS011;34336;48.270;16.716;2023-12-04T04:22:27;18.42;;;9.88;;
48554;SDS011;34336;48.270;16.716;2023-12-04T04:24:54;17.45;;;9.80;;
48554;SDS011;34336;48.270;16.716;2023-12-04T04:27:22;15.65;;;9.00;;
48554;SDS011;34336;48.270;16.716;2023-12-04T04:29:49;18.88;;;9.63;;
48554;SDS011;34336;48.270;16.716;2023-12-04T04:32:16;19.35;;;8.82;;
48554;SDS011;34336;48.270;16.716;2023-12-04T04:34:42;17.48;;;8.70;;
48554;SDS011;34336;48.270;16.716;2023-12-04T04:37:09;17.05;;;9.52;;
48554;SDS011;34336;48.270;16.716;2023-12-04T04:39:36;18.65;;;8.70;;
48554;SDS011;34336;48.270;16.716;2023-12-04T04:42:03;19.08;;;9.18;;
48554;SDS011;34336;48.270;16.716;2023-12-04T04:44:30;15.18;;;9.85;;
48554;SDS011;34336;48.270;16.716;2023-12-04T04:46:56;16.02;;;9.82;;
48554;SDS011;34336;48.270;16.716;2023-12-04T04:49:23;13.85;;;7.78;;
48554;SDS011;34336;48.270;16.716;2023-12-04T04:51:50;16.42;;;9.60;;
48554;SDS011;34336;48.270;16.716;2023-12-04T04:54:17;17.90;;;9.73;;
48554;SDS011;34336;48.270;16.716;2023-12-04T04:56:44;18.48;;;9.35;;
48554;SDS011;34336;48.270;16.716;2023-12-04T04:59:11;18.63;;;8.88;;
48554;SDS011;34336;48.270;16.716;2023-12-04T05:01:37;17.48;;;8.55;;
48554;SDS011;34336;48.270;16.716;2023-12-04T05:04:04;14.40;;;8.60;;
48554;SDS011;34336;48.270;16.716;2023-12-04T05:06:31;18.35;;;9.35;;
48554;SDS011;34336;48.270;16.716;2023-12-04T05:08:58;16.85;;;9.48;;
48554;SDS011;34336;48.270;16.716;2023-12-04T05:11:25;19.90;;;10.13;;
48554;SDS011;34336;48.270;16.716;2023-12-04T05:13:53;15.55;;;8.73;;
48554;SDS011;34336;48.270;16.716;2023-12-04T05:16:19;17.80;;;9.30;;
48554;SDS011;34336;48.270;16.716;2023-12-04T05:18:46;18.83;;;9.52;;
48554;SDS011;34336;48.270;16.716;2023-12-04T05:21:13;20.85;;;10.52;;
48554;SDS011;34336;48.270;16.716;2023-12-04T05:23:40;28.55;;;15.45;;
48554;SDS011;34336;48.270;16.716;2023-12-04T05:26:07;32.05;;;16.40;;
48554;SDS011;34336;48.270;16.716;2023-12-04T05:28:34;21.80;;;12.93;;
48554;SDS011;34336;48.270;16.716;2023-12-04T05:31:01;28.50;;;13.47;;
48554;SDS011;34336;48.270;16.716;2023-12-04T05:33:27;24.63;;;13.68;;
48554;SDS011;34336;48.270;16.716;2023-12-04T05:35:54;26.57;;;14.37;;
48554;SDS011;34336;48.270;16.716;2023-12-04T05:38:21;28.47;;;14.03;;
48554;SDS011;34336;48.270;16.716;2023-12-04T05:40:48;81.43;;;32.40;;
48554;SDS011;34336;48.270;16.716;2023-12-04T05:43:15;95.70;;;31.30;;
48554;SDS011;34336;48.270;16.716;2023-12-04T05:45:42;274.88;;;75.20;;
48554;SDS011;34336;48.270;16.716;2023-12-04T05:48:09;205.63;;;70.22;;
48554;SDS011;34336;48.270;16.716;2023-12-04T05:50:36;116.97;;;44.15;;
48554;SDS011;34336;48.270;16.716;2023-12-04T05:53:03;57.03;;;23.65;;
48554;SDS011;34336;48.270;16.716;2023-12-04T05:55:29;43.07;;;19.43;;
48554;SDS011;34336;48.270;16.716;2023-12-04T05:57:56;37.20;;;16.55;;
48554;SDS011;34336;48.270;16.716;2023-12-04T06:00:23;37.35;;;16.50;;
48554;SDS011;34336;48.270;16.716;2023-12-04T06:02:54;41.80;;;16.27;;
48554;SDS011;34336;48.270;16.716;2023-12-04T06:05:21;33.10;;;15.00;;
48554;SDS011;34336;48.270;16.716;2023-12-04T06:07:49;39.88;;;16.10;;
48554;SDS011;34336;48.270;16.716;2023-12-04T06:10:16;62.33;;;17.83;;
48554;SDS011;34336;48.270;16.716;2023-12-04T06:12:43;33.83;;;16.00;;
48554;SDS011;34336;48.270;16.716;2023-12-04T06:15:10;42.78;;;17.48;;
48554;SDS011;34336;48.270;16.716;2023-12-04T06:17:37;52.70;;;17.43;;
48554;SDS011;34336;48.270;16.716;2023-12-04T06:20:04;39.30;;;17.60;;
48554;SDS011;34336;48.270;16.716;2023-12-04T06:22:33;43.67;;;18.57;;
48554;SDS011;34336;48.270;16.716;2023-12-04T06:25:00;42.40;;;17.42;;
48554;SDS011;34336;48.270;16.716;2023-12-04T06:27:27;41.93;;;18.77;;
48554;SDS011;34336;48.270;16.716;2023-12-04T06:29:54;41.43;;;17.20;;
48554;SDS011;34336;48.270;16.716;2023-12-04T06:32:21;33.72;;;14.70;;
48554;SDS011;34336;48.270;16.716;2023-12-04T06:34:48;35.77;;;16.13;;
48554;SDS011;34336;48.270;16.716;2023-12-04T06:37:15;35.07;;;14.60;;
48554;SDS011;34336;48.270;16.716;2023-12-04T06:39:42;25.10;;;12.57;;
48554;SDS011;34336;48.270;16.716;2023-12-04T06:42:12;26.48;;;13.25;;
48554;SDS011;34336;48.270;16.716;2023-12-04T06:44:39;30.30;;;13.13;;
48554;SDS011;34336;48.270;16.716;2023-12-04T06:47:07;34.33;;;15.55;;
48554;SDS011;34336;48.270;16.716;2023-12-04T06:49:35;31.23;;;13.60;;
48554;SDS011;34336;48.270;16.716;2023-12-04T06:52:02;28.45;;;15.27;;
48554;SDS011;34336;48.270;16.716;2023-12-04T06:54:29;32.80;;;14.45;;
48554;SDS011;34336;48.270;16.716;2023-12-04T06:56:56;29.33;;;14.88;;
48554;SDS011;34336;48.270;16.716;2023-12-04T06:59:22;36.00;;;16.92;;
48554;SDS011;34336;48.270;16.716;2023-12-04T07:01:49;29.80;;;14.23;;
48554;SDS011;34336;48.270;16.716;2023-12-04T07:04:16;28.85;;;13.70;;
48554;SDS011;34336;48.270;16.716;2023-12-04T07:06:48;31.43;;;14.73;;
48554;SDS011;34336;48.270;16.716;2023-12-04T07:09:15;32.95;;;14.70;;
48554;SDS011;34336;48.270;16.716;2023-12-04T07:11:43;37.67;;;15.65;;
48554;SDS011;34336;48.270;16.716;2023-12-04T07:14:10;33.20;;;14.73;;
48554;SDS011;34336;48.270;16.716;2023-12-04T07:16:42;32.65;;;15.35;;
48554;SDS011;34336;48.270;16.716;2023-12-04T07:19:10;29.88;;;14.02;;
48554;SDS011;34336;48.270;16.716;2023-12-04T07:21:38;32.97;;;15.23;;
48554;SDS011;34336;48.270;16.716;2023-12-04T07:24:06;28.85;;;14.48;;
48554;SDS011;34336;48.270;16.716;2023-12-04T07:26:33;31.38;;;15.50;;
48554;SDS011;34336;48.270;16.716;2023-12-04T07:29:01;31.75;;;15.40;;
48554;SDS011;34336;48.270;16.716;2023-12-04T07:31:29;30.30;;;15.50;;
48554;SDS011;34336;48.270;16.716;2023-12-04T07:33:55;28.88;;;14.60;;
48554;SDS011;34336;48.270;16.716;2023-12-04T07:36:23;30.15;;;14.63;;
48554;SDS011;34336;48.270;16.716;2023-12-04T07:38:51;24.92;;;13.82;;
48554;SDS011;34336;48.270;16.716;2023-12-04T07:41:20;29.00;;;14.57;;
48554;SDS011;34336;48.270;16.716;2023-12-04T07:43:48;27.20;;;13.60;;
48554;SDS011;34336;48.270;16.716;2023-12-04T07:46:15;30.00;;;14.27;;
48554;SDS011;34336;48.270;16.716;2023-12-04T07:48:42;33.65;;;16.05;;
48554;SDS011;34336;48.270;16.716;2023-12-04T07:51:10;28.95;;;14.65;;
48554;SDS011;34336;48.270;16.716;2023-12-04T07:53:37;29.90;;;14.13;;
48554;SDS011;34336;48.270;16.716;2023-12-04T07:56:04;30.13;;;15.88;;
48554;SDS011;34336;48.270;16.716;2023-12-04T07:58:31;31.83;;;16.35;;
48554;SDS011;34336;48.270;16.716;2023-12-04T08:00:58;29.10;;;14.15;;
48554;SDS011;34336;48.270;16.716;2023-12-04T08:03:26;29.67;;;15.65;;
48554;SDS011;34336;48.270;16.716;2023-12-04T08:05:53;30.90;;;15.30;;
48554;SDS011;34336;48.270;16.716;2023-12-04T08:08:20;30.08;;;15.77;;
48554;SDS011;34336;48.270;16.716;2023-12-04T08:10:48;34.92;;;17.55;;
48554;SDS011;34336;48.270;16.716;2023-12-04T08:13:15;35.22;;;16.83;;
48554;SDS011;34336;48.270;16.716;2023-12-04T08:15:43;30.38;;;16.80;;
48554;SDS011;34336;48.270;16.716;2023-12-04T08:18:11;30.10;;;16.63;;
48554;SDS011;34336;48.270;16.716;2023-12-04T08:20:38;33.05;;;16.88;;
48554;SDS011;34336;48.270;16.716;2023-12-04T08:23:07;31.60;;;18.20;;
48554;SDS011;34336;48.270;16.716;2023-12-04T08:25:34;32.33;;;18.42;;
48554;SDS011;34336;48.270;16.716;2023-12-04T08:28:04;34.72;;;18.92;;
48554;SDS011;34336;48.270;16.716;2023-12-04T08:30:31;36.38;;;19.52;;
48554;SDS011;34336;48.270;16.716;2023-12-04T08:32:57;34.00;;;19.73;;
48554;SDS011;34336;48.270;16.716;2023-12-04T08:35:24;32.13;;;19.50;;
48554;SDS011;34336;48.270;16.716;2023-12-04T08:37:51;30.70;;;19.48;;
48554;SDS011;34336;48.270;16.716;2023-12-04T08:40:18;34.00;;;19.77;;
48554;SDS011;34336;48.270;16.716;2023-12-04T08:42:45;35.65;;;20.52;;
48554;SDS011;34336;48.270;16.716;2023-12-04T08:45:12;33.42;;;18.77;;
48554;SDS011;34336;48.270;16.716;2023-12-04T08:47:44;37.03;;;18.95;;
48554;SDS011;34336;48.270;16.716;2023-12-04T08:50:10;36.60;;;20.98;;
48554;SDS011;34336;48.270;16.716;2023-12-04T08:52:37;33.30;;;18.95;;
48554;SDS011;34336;48.270;16.716;2023-12-04T08:55:07;28.83;;;18.38;;
48554;SDS011;34336;48.270;16.716;2023-12-04T08:57:34;32.00;;;17.92;;
48554;SDS011;34336;48.270;16.716;2023-12-04T09:00:02;30.23;;;17.88;;
48554;SDS011;34336;48.270;16.716;2023-12-04T09:02:30;30.77;;;19.70;;
48554;SDS011;34336;48.270;16.716;2023-12-04T09:04:58;31.98;;;19.08;;
48554;SDS011;34336;48.270;16.716;2023-12-04T09:07:26;29.85;;;17.27;;
48554;SDS011;34336;48.270;16.716;2023-12-04T09:10:12;32.47;;;18.63;;
48554;SDS011;34336;48.270;16.716;2023-12-04T09:12:56;36.55;;;18.67;;
48554;SDS011;34336;48.270;16.716;2023-12-04T09:15:22;33.95;;;19.52;;
48554;SDS011;34336;48.270;16.716;2023-12-04T09:17:49;31.13;;;18.15;;
48554;SDS011;34336;48.270;16.716;2023-12-04T09:20:16;31.45;;;18.40;;
48554;SDS011;34336;48.270;16.716;2023-12-04T09:22:43;30.65;;;17.05;;
48554;SDS011;34336;48.270;16.716;2023-12-04T09:25:18;32.30;;;18.77;;
48554;SDS011;34336;48.270;16.716;2023-12-04T09:27:45;34.85;;;20.88;;
48554;SDS011;34336;48.270;16.716;2023-12-04T09:30:12;30.63;;;18.27;;
48554;SDS011;34336;48.270;16.716;2023-12-04T09:32:40;33.92;;;19.42;;
48554;SDS011;34336;48.270;16.716;2023-12-04T09:35:07;28.92;;;18.38;;
48554;SDS011;34336;48.270;16.716;2023-12-04T09:37:34;30.95;;;17.70;;
48554;SDS011;34336;48.270;16.716;2023-12-04T09:40:01;28.40;;;16.98;;
48554;SDS011;34336;48.270;16.716;2023-12-04T09:42:29;29.85;;;18.80;;
48554;SDS011;34336;48.270;16.716;2023-12-04T09:44:57;30.08;;;17.48;;
48554;SDS011;34336;48.270;16.716;2023-12-04T09:47:24;32.35;;;18.05;;
48554;SDS011;34336;48.270;16.716;2023-12-04T09:49:52;30.50;;;18.77;;
48554;SDS011;34336;48.270;16.716;2023-12-04T09:52:21;31.98;;;18.17;;
48554;SDS011;34336;48.270;16.716;2023-12-04T09:54:48;32.03;;;17.77;;
48554;SDS011;34336;48.270;16.716;2023-12-04T09:57:17;33.05;;;18.95;;
48554;SDS011;34336;48.270;16.716;2023-12-04T09:59:44;31.60;;;18.30;;
48554;SDS011;34336;48.270;16.716;2023-12-04T10:02:12;31.98;;;19.73;;
48554;SDS011;34336;48.270;16.716;2023-12-04T10:04:39;33.78;;;19.50;;
48554;SDS011;34336;48.270;16.716;2023-12-04T10:07:07;35.78;;;20.83;;
48554;SDS011;34336;48.270;16.716;2023-12-04T10:09:34;34.58;;;20.17;;
48554;SDS011;34336;48.270;16.716;2023-12-04T10:12:01;37.03;;;21.88;;
48554;SDS011;34336;48.270;16.716;2023-12-04T10:14:28;37.33;;;22.38;;
48554;SDS011;34336;48.270;16.716;2023-12-04T10:16:55;33.30;;;19.88;;
48554;SDS011;34336;48.270;16.716;2023-12-04T10:19:23;33.05;;;18.63;;
48554;SDS011;34336;48.270;16.716;2023-12-04T10:21:54;32.95;;;19.98;;
48554;SDS011;34336;48.270;16.716;2023-12-04T10:24:29;31.90;;;19.52;;
48554;SDS011;34336;48.270;16.716;2023-12-04T10:26:56;33.55;;;18.55;;
48554;SDS011;34336;48.270;16.716;2023-12-04T10:29:24;27.30;;;17.90;;
48554;SDS011;34336;48.270;16.716;2023-12-04T10:31:53;27.23;;;16.67;;
48554;SDS011;34336;48.270;16.716;2023-12-04T10:34:22;31.20;;;17.73;;
48554;SDS011;34336;48.270;16.716;2023-12-04T10:36:52;29.75;;;16.63;;
48554;SDS011;34336;48.270;16.716;2023-12-04T10:39:20;27.30;;;17.00;;
48554;SDS011;34336;48.270;16.716;2023-12-04T10:41:50;27.92;;;15.73;;
48554;SDS011;34336;48.270;16.716;2023-12-04T10:44:26;27.25;;;16.60;;
48554;SDS011;34336;48.270;16.716;2023-12-04T10:46:53;25.30;;;15.90;;
48554;SDS011;34336;48.270;16.716;2023-12-04T10:49:27;25.35;;;14.77;;
48554;SDS011;34336;48.270;16.716;2023-12-04T10:51:58;24.95;;;14.75;;
48554;SDS011;34336;48.270;16.716;2023-12-04T10:54:26;22.58;;;12.88;;
48554;SDS011;34336;48.270;16.716;2023-12-04T10:56:55;21.10;;;13.77;;
48554;SDS011;34336;48.270;16.716;2023-12-04T10:59:27;26.23;;;14.90;;
48554;SDS011;34336;48.270;16.716;2023-12-04T11:01:59;24.17;;;13.75;;
48554;SDS011;34336;48.270;16.716;2023-12-04T11:04:29;22.27;;;13.60;;
48554;SDS011;34336;48.270;16.716;2023-12-04T11:06:59;21.13;;;12.98;;
48554;SDS011;34336;48.270;16.716;2023-12-04T11:09:28;20.52;;;14.23;;
48554;SDS011;34336;48.270;16.716;2023-12-04T11:11:59;22.85;;;13.65;;
48554;SDS011;34336;48.270;16.716;2023-12-04T11:14:41;21.63;;;14.55;;
48554;SDS011;34336;48.270;16.716;2023-12-04T11:17:12;23.42;;;14.82;;
48554;SDS011;34336;48.270;16.716;2023-12-04T11:19:55;20.50;;;13.57;;
48554;SDS011;34336;48.270;16.716;2023-12-04T11:22:26;21.80;;;13.27;;
48554;SDS011;34336;48.270;16.716;2023-12-04T11:24:53;20.85;;;13.23;;
48554;SDS011;34336;48.270;16.716;2023-12-04T11:27:22;21.58;;;13.15;;
48554;SDS011;34336;48.270;16.716;2023-12-04T11:29:50;24.15;;;14.23;;
48554;SDS011;34336;48.270;16.716;2023-12-04T11:32:18;20.13;;;12.98;;
48554;SDS011;34336;48.270;16.716;2023-12-04T11:34:51;24.90;;;13.48;;
48554;SDS011;34336;48.270;16.716;2023-12-04T11:37:20;21.05;;;12.38;;
48554;SDS011;34336;48.270;16.716;2023-12-04T11:39:49;19.55;;;12.82;;
48554;SDS011;34336;48.270;16.716;2023-12-04T11:42:24;19.90;;;12.30;;
48554;SDS011;34336;48.270;16.716;2023-12-04T11:44:58;19.80;;;12.30;;
48554;SDS011;34336;48.270;16.716;2023-12-04T11:47:27;18.77;;;11.52;;
48554;SDS011;34336;48.270;16.716;2023-12-04T11:49:54;18.15;;;11.57;;
48554;SDS011;34336;48.270;16.716;2023-12-04T11:52:31;18.67;;;11.93;;
48554;SDS011;34336;48.270;16.716;2023-12-04T11:55:00;18.30;;;11.15;;
48554;SDS011;34336;48.270;16.716;2023-12-04T11:57:37;17.90;;;11.35;;
48554;SDS011;34336;48.270;16.716;2023-12-04T12:05:41;15.68;;;10.00;;
48554;SDS011;34336;48.270;16.716;2023-12-04T12:08:09;14.88;;;9.65;;
48554;SDS011;34336;48.270;16.716;2023-12-04T12:10:37;18.30;;;10.15;;
48554;SDS011;34336;48.270;16.716;2023-12-04T12:13:04;14.98;;;9.85;;
48554;SDS011;34336;48.270;16.716;2023-12-04T12:15:32;14.60;;;9.07;;
48554;SDS011;34336;48.270;16.716;2023-12-04T12:18:00;15.65;;;9.63;;
48554;SDS011;34336;48.270;16.716;2023-12-04T12:20:27;14.15;;;9.80;;
48554;SDS011;34336;48.270;16.716;2023-12-04T12:22:54;16.42;;;10.30;;
48554;SDS011;34336;48.270;16.716;2023-12-04T12:25:22;13.63;;;9.52;;
48554;SDS011;34336;48.270;16.716;2023-12-04T12:27:50;14.88;;;9.30;;
48554;SDS011;34336;48.270;16.716;2023-12-04T12:30:17;13.90;;;8.82;;
48554;SDS011;34336;48.270;16.716;2023-12-04T12:32:44;13.90;;;8.80;;
48554;SDS011;34336;48.270;16.716;2023-12-04T12:35:11;15.07;;;8.88;;
48554;SDS011;34336;48.270;16.716;2023-12-04T12:37:38;14.40;;;8.43;;
48554;SDS011;34336;48.270;16.716;2023-12-04T12:40:06;13.75;;;8.20;;
48554;SDS011;34336;48.270;16.716;2023-12-04T12:42:36;13.98;;;8.95;;
48554;SDS011;34336;48.270;16.716;2023-12-04T12:45:08;13.43;;;8.23;;
48554;SDS011;34336;48.270;16.716;2023-12-04T12:47:44;12.95;;;8.13;;
48554;SDS011;34336;48.270;16.716;2023-12-04T12:50:11;11.52;;;7.90;;
48554;SDS011;34336;48.270;16.716;2023-12-04T12:52:41;14.70;;;9.15;;
48554;SDS011;34336;48.270;16.716;2023-12-04T12:55:09;13.50;;;8.55;;
48554;SDS011;34336;48.270;16.716;2023-12-04T12:57:36;15.00;;;9.50;;
48554;SDS011;34336;48.270;16.716;2023-12-04T13:00:04;13.65;;;8.98;;
48554;SDS011;34336;48.270;16.716;2023-12-04T13:02:35;13.35;;;7.80;;
48554;SDS011;34336;48.270;16.716;2023-12-04T13:05:03;12.40;;;8.18;;
48554;SDS011;34336;48.270;16.716;2023-12-04T13:07:31;14.45;;;8.05;;
48554;SDS011;34336;48.270;16.716;2023-12-04T13:09:58;12.27;;;7.30;;
48554;SDS011;34336;48.270;16.716;2023-12-04T13:12:25;10.80;;;7.60;;
48554;SDS011;34336;48.270;16.716;2023-12-04T13:14:52;11.90;;;7.07;;
48554;SDS011;34336;48.270;16.716;2023-12-04T13:17:19;10.45;;;7.22;;
48554;SDS011;34336;48.270;16.716;2023-12-04T13:19:45;12.13;;;7.90;;
48554;SDS011;34336;48.270;16.716;2023-12-04T13:22:12;10.55;;;7.25;;
48554;SDS011;34336;48.270;16.716;2023-12-04T13:24:39;15.38;;;8.13;;
48554;SDS011;34336;48.270;16.716;2023-12-04T13:27:07;10.45;;;7.45;;
48554;SDS011;34336;48.270;16.716;2023-12-04T13:29:34;10.52;;;7.30;;
48554;SDS011;34336;48.270;16.716;2023-12-04T13:32:02;12.35;;;7.50;;
48554;SDS011;34336;48.270;16.716;2023-12-04T13:34:29;11.25;;;7.15;;
48554;SDS011;34336;48.270;16.716;2023-12-04T13:36:56;12.55;;;8.20;;
48554;SDS011;34336;48.270;16.716;2023-12-04T13:39:23;12.73;;;8.45;;
48554;SDS011;34336;48.270;16.716;2023-12-04T13:42:08;14.20;;;8.88;;
48554;SDS011;34336;48.270;16.716;2023-12-04T13:44:54;14.35;;;8.65;;
48554;SDS011;34336;48.270;16.716;2023-12-04T13:47:20;11.45;;;7.70;;
48554;SDS011;34336;48.270;16.716;2023-12-04T13:49:47;15.73;;;8.32;;
48554;SDS011;34336;48.270;16.716;2023-12-04T13:52:14;13.93;;;8.80;;
48554;SDS011;34336;48.270;16.716;2023-12-04T13:54:41;13.70;;;8.63;;
48554;SDS011;34336;48.270;16.716;2023-12-04T13:57:14;14.77;;;8.43;;
48554;SDS011;34336;48.270;16.716;2023-12-04T14:00:07;13.68;;;8.45;;
48554;SDS011;34336;48.270;16.716;2023-12-04T14:02:35;16.73;;;9.80;;
48554;SDS011;34336;48.270;16.716;2023-12-04T14:05:04;15.02;;;8.90;;
48554;SDS011;34336;48.270;16.716;2023-12-04T14:07:31;13.68;;;9.35;;
48554;SDS011;34336;48.270;16.716;2023-12-04T14:09:58;15.55;;;10.02;;
48554;SDS011;34336;48.270;16.716;2023-12-04T14:12:25;15.63;;;10.23;;
48554;SDS011;34336;48.270;16.716;2023-12-04T14:14:52;15.52;;;10.57;;
48554;SDS011;34336;48.270;16.716;2023-12-04T14:17:23;15.98;;;9.75;;
48554;SDS011;34336;48.270;16.716;2023-12-04T14:19:51;17.58;;;10.73;;
48554;SDS011;34336;48.270;16.716;2023-12-04T14:22:17;15.30;;;10.60;;